Merle K (Mudhole) Smith Airport
PACV : now visible

Airfield :











YOU CAN JOIN US ON...

 
LOGIN :

Register | Disclaimer

   EN    FR    IT 

 









Legend :    VFR   Marginal VFR   IFR   Intensive IFR   Very Intensive IFR
Visi :
Ceiling :
>= 8 km
>= 3000ft
5 to 8 km
1000 to 3000 ft
1500m to 5 km
500 to 1000 ft
800 to 1500m
200 to 500 ft
< 800m
< 200 ft
Symbols :   Thunderstorms  Fog  Heavy snow  Heavy precipitations  Wind > 20 kt






- Airport Elevation : 54 ft
- IATA code : CDV


PACV - Merle K (Mudhole) Smith

CURRENT METAR :
  • 271353Z 09012G23KT 10SM -RA FEW016 SCT029 BKN038 04/M01 A2957 RMK AO2 PK WND 12028/1343 RAE1254B49 SLP012 P0000 T00391006 $

EXPIRED METARs :
  • 271253Z 09008KT 10SM -RA BKN031 BKN041 OVC085 04/00 A2960 RMK AO2 RAB1157 SLP025 P0002 T00390000 $
  • 271153Z 09011G18KT 10SM FEW018 OVC029 03/00 A2962 RMK AO2 RAE45 SLP031 P0000 60008 70011 T00330000 10044 20022 58015 $

TAF PACV
Valid from the 27 at 12:00 until the 28 at 12:00 UTC


271127Z 2712/2812 10012G20KT 6SM -SHRA BKN025
FM271500 11015G30KT 3SM -RASN OVC025
FM272100 10015G25KT 1SM RASN OVC009
FM280600 10012G20KT 4SM -RA BR OVC015
PAZA FIR / North America



MET'MAP, your aeronautical weather chart ! - Copyright ORBIFLY December 2007 - Disclaimer

ORBIFLY MET'MAP TEAM :

Programming & Development : Alexandra Zaïnal
Concept & original design : Baudouin d'Aumeries
Assistance for programming : Marc-Olivier Méhu
Technical & hardware support : Manuel Goepfert

Contact : metmap@orbifly.com




SOURCES & CREDITS :

   NOAA       Earth
Advisory